McCalla, Alabama
Current Conditions -  °F | °C
As of 10:53 AM on Friday 24 Oct 2014 (Local Time) from KEET Reporting Station
Clear Clear  
Wind Chill: 68°   Ceiling: Unl
Heat Index: 68°   Visibility: 10mi
Dew Point: 47°   Wind: 8mph
Humidity: 47%   Direction: 330°NNW
Pressure: 30.1"   Gusts: NA
Location:  33.35°N, 87.01°W
Report Text: KEET 241553Z AUTO 33007KT 10SM CLR 20/08 A3010 RMK AO2 SLP189 T02000083
Loading
Personal Weather Stations






























Interactive Weather Map
Tropical Storm Tracking
New forecast layout! Learn more

10-Day Weather Forecast

Advertisements
Track Severe Weather on mobile